Time;durP1;ratioP1;P1;durP2;ratioP2;P2;SDS_P1;SDS_P2;PMS_P1;PMS_P2;Temp;Humidity;BMP_temperature;BMP_pressure;BME280_temperature;BME280_humidity;BME280_pressure;Samples;Min_cycle;Max_cycle;Signal;HPM_P1;HPM_P2
2022/06/30 19:39:10;;;;;;;;;;;27.90;62.40;;;;;;4961178;22;19945;-66
2022/06/30 19:41:36;;;;;;;;;;;27.90;62.60;;;;;;5015977;28;19921;-65
2022/06/30 19:44:02;;;;;;;;;;;27.90;62.60;;;;;;5031543;28;19919;-69
2022/06/30 19:46:29;;;;;;;;;;;27.80;62.50;;;;;;5031540;28;19996;-73
2022/06/30 19:48:54;;;;;;;;;;;27.80;62.50;;;;;;5031362;28;19913;-70
2022/06/30 19:51:20;;;;;;;;;;;27.80;61.90;;;;;;5031558;28;19916;-69
2022/06/30 19:53:45;;;;;;;;;;;27.80;62.10;;;;;;5031872;28;19913;-65
2022/06/30 19:56:12;;;;;;;;;;;27.90;62.00;;;;;;5031339;28;19944;-68
2022/06/30 19:58:38;;;;;;;;;;;27.90;60.80;;;;;;5031484;28;19944;-66
2022/06/30 20:01:05;;;;;;;;;;;27.90;61.10;;;;;;5031588;28;19956;-65
2022/06/30 20:06:14;;;;;;;;;;;27.70;61.80;;;;;;5033673;28;19915;-70
2022/06/30 20:11:27;;;;;;;;;;;27.60;61.80;;;;;;5036008;28;20471;-65
2022/06/30 20:13:53;;;;;;;;;;;27.60;62.30;;;;;;5035468;28;19917;-68
2022/06/30 20:16:18;;;;;;;;;;;27.50;62.40;;;;;;5035484;28;19917;-72
2022/06/30 20:18:44;;;;;;;;;;;27.50;62.70;;;;;;5035405;28;19915;-70
2022/06/30 20:21:10;;;;;;;;;;;27.50;62.50;;;;;;5035513;28;19909;-71
2022/06/30 20:23:35;;;;;;;;;;;27.50;62.50;;;;;;5035291;28;19920;-73
2022/06/30 20:26:01;;;;;;;;;;;27.40;62.00;;;;;;5035410;28;20338;-72
2022/06/30 20:28:27;;;;;;;;;;;27.40;61.60;;;;;;5035303;28;19916;-68
2022/06/30 20:30:53;;;;;;;;;;;27.40;62.20;;;;;;5035365;28;19913;-69
2022/06/30 20:33:19;;;;;;;;;;;27.40;62.20;;;;;;5035271;28;19913;-71
2022/06/30 20:35:45;;;;;;;;;;;27.40;62.10;;;;;;5035119;28;20371;-70
2022/06/30 20:38:11;;;;;;;;;;;27.40;62.00;;;;;;5035315;28;19915;-70
2022/06/30 20:40:36;;;;;;;;;;;27.30;62.30;;;;;;5047836;28;19928;-70
2022/06/30 20:43:02;;;;;;;;;;;27.20;62.60;;;;;;5055482;28;19923;-70
2022/06/30 20:45:28;;;;;;;;;;;27.10;62.60;;;;;;5054478;28;19909;-69
2022/06/30 20:53:21;;;;;;;;;;;27.50;61.60;;;;;;5067264;28;19939;-67
2022/06/30 20:55:47;;;;;;;;;;;27.50;60.90;;;;;;5069010;28;19913;-71
2022/06/30 20:58:12;;;;;;;;;;;27.50;61.00;;;;;;5063536;28;19920;-72
2022/06/30 21:00:40;;;;;;;;;;;27.30;61.30;;;;;;5058179;28;19912;-68
2022/06/30 21:03:05;;;;;;;;;;;27.40;61.60;;;;;;5060806;28;19916;-73
2022/06/30 21:05:31;;;;;;;;;;;27.40;61.50;;;;;;5058624;28;20280;-70
2022/06/30 21:07:56;;;;;;;;;;;27.60;60.90;;;;;;5054470;28;20399;-70
2022/06/30 21:10:22;;;;;;;;;;;27.60;60.00;;;;;;5054354;28;19970;-70
2022/06/30 21:12:47;;;;;;;;;;;27.80;59.50;;;;;;5054539;28;19959;-72
2022/06/30 21:15:13;;;;;;;;;;;27.90;59.20;;;;;;5054347;28;19984;-72
2022/06/30 21:17:39;;;;;;;;;;;27.80;58.80;;;;;;5054242;28;19908;-72
2022/06/30 21:20:06;;;;;;;;;;;27.90;58.60;;;;;;5054318;28;19913;-72
2022/06/30 21:22:32;;;;;;;;;;;27.80;58.40;;;;;;5054271;28;19938;-71
2022/06/30 21:24:58;;;;;;;;;;;27.80;58.60;;;;;;5054026;28;19917;-72
2022/06/30 21:27:23;;;;;;;;;;;27.80;58.50;;;;;;5054039;28;19958;-72
2022/06/30 21:29:49;;;;;;;;;;;27.90;58.50;;;;;;5054087;28;19963;-67
2022/06/30 21:32:15;;;;;;;;;;;27.90;58.50;;;;;;5054284;28;19909;-70
2022/06/30 21:34:40;;;;;;;;;;;27.90;58.50;;;;;;5036222;28;19913;-69
2022/06/30 21:37:06;;;;;;;;;;;27.80;58.10;;;;;;5053701;28;19909;-70
2022/06/30 21:39:31;;;;;;;;;;;27.80;58.20;;;;;;5035891;28;19924;-69
2022/06/30 21:41:57;;;;;;;;;;;27.60;58.50;;;;;;5053839;28;19923;-70
2022/06/30 21:44:23;;;;;;;;;;;27.60;58.80;;;;;;5053892;28;19915;-70
2022/06/30 21:46:48;;;;;;;;;;;27.50;59.10;;;;;;5053591;28;19976;-72
2022/06/30 21:49:15;;;;;;;;;;;27.50;59.20;;;;;;5053458;28;19925;-70
2022/06/30 21:51:42;;;;;;;;;;;27.50;59.30;;;;;;5053506;28;19912;-71
2022/06/30 21:54:07;;;;;;;;;;;27.50;59.40;;;;;;5053337;28;20003;-68
2022/06/30 21:56:33;;;;;;;;;;;27.40;59.30;;;;;;5053458;28;20016;-73
2022/06/30 21:58:59;;;;;;;;;;;27.50;59.40;;;;;;5053391;28;20368;-66
2022/06/30 22:01:26;;;;;;;;;;;27.50;59.00;;;;;;5053409;28;20253;-67
2022/06/30 22:03:54;;;;;;;;;;;27.60;59.00;;;;;;5053429;28;19908;-70
2022/06/30 22:06:22;;;;;;;;;;;27.60;58.70;;;;;;5053058;28;20264;-67
2022/06/30 22:08:50;;;;;;;;;;;27.70;58.60;;;;;;5052304;28;21402;-67
2022/06/30 22:11:15;;;;;;;;;;;27.70;58.50;;;;;;5053124;28;19909;-65
2022/06/30 22:13:41;;;;;;;;;;;27.70;58.50;;;;;;5053029;28;19912;-67
2022/06/30 22:16:07;;;;;;;;;;;27.40;59.10;;;;;;5053070;28;19968;-73
2022/06/30 22:18:32;;;;;;;;;;;27.20;59.70;;;;;;5052860;28;19913;-71
2022/06/30 22:20:58;;;;;;;;;;;27.00;60.30;;;;;;5052934;28;20094;-67
2022/06/30 22:23:23;;;;;;;;;;;26.90;60.80;;;;;;5052974;28;20664;-67
2022/06/30 22:25:49;;;;;;;;;;;26.80;61.40;;;;;;5052908;28;20321;-69
2022/06/30 22:28:14;;;;;;;;;;;26.90;61.30;;;;;;5052252;28;19913;-69
2022/06/30 22:30:40;;;;;;;;;;;27.10;61.10;;;;;;5052831;28;19920;-71
2022/06/30 22:33:06;;;;;;;;;;;27.20;60.90;;;;;;5052880;28;19909;-69
2022/06/30 22:35:32;;;;;;;;;;;27.20;60.80;;;;;;5052433;28;19920;-69
2022/06/30 22:37:57;;;;;;;;;;;27.30;60.50;;;;;;5052948;28;20290;-71
2022/06/30 22:40:23;;;;;;;;;;;27.30;60.80;;;;;;5052439;28;19925;-67
2022/06/30 22:42:48;;;;;;;;;;;27.10;61.40;;;;;;5052699;28;19997;-68
2022/06/30 22:45:14;;;;;;;;;;;26.90;61.80;;;;;;5052425;28;20311;-65
2022/06/30 22:47:40;;;;;;;;;;;27.00;61.90;;;;;;5052546;28;19916;-67
2022/06/30 22:50:05;;;;;;;;;;;26.90;62.30;;;;;;5052225;28;19928;-67
2022/06/30 22:52:31;;;;;;;;;;;26.80;62.90;;;;;;5052420;28;19919;-67
2022/06/30 22:54:57;;;;;;;;;;;26.80;62.80;;;;;;5052362;28;20356;-66
2022/06/30 22:57:22;;;;;;;;;;;27.00;62.40;;;;;;5052198;28;20296;-68
2022/06/30 22:59:48;;;;;;;;;;;27.00;62.10;;;;;;5052240;28;19912;-68
2022/06/30 23:02:13;;;;;;;;;;;27.00;62.20;;;;;;5052306;28;20276;-66
2022/06/30 23:04:39;;;;;;;;;;;27.00;62.50;;;;;;5051975;28;19981;-69
2022/06/30 23:07:04;;;;;;;;;;;27.10;62.10;;;;;;5052040;28;19923;-70
2022/06/30 23:09:30;;;;;;;;;;;27.20;61.60;;;;;;5052081;28;19917;-67
2022/06/30 23:11:55;;;;;;;;;;;27.30;61.20;;;;;;5052250;28;20335;-68
2022/06/30 23:14:21;;;;;;;;;;;27.40;60.50;;;;;;5052197;28;19940;-70
2022/06/30 23:16:46;;;;;;;;;;;27.40;60.10;;;;;;5051771;28;19908;-72
2022/06/30 23:19:12;;;;;;;;;;;27.40;60.00;;;;;;5052234;28;19917;-67
2022/06/30 23:21:38;;;;;;;;;;;27.40;60.00;;;;;;5052034;28;19923;-71
2022/06/30 23:24:04;;;;;;;;;;;27.30;59.90;;;;;;5052174;28;19915;-72
2022/06/30 23:26:29;;;;;;;;;;;27.00;60.90;;;;;;5051913;28;19913;-71
2022/06/30 23:28:55;;;;;;;;;;;26.90;61.90;;;;;;5052061;28;20425;-75
2022/06/30 23:31:20;;;;;;;;;;;26.70;62.40;;;;;;5052205;28;20413;-71
2022/06/30 23:33:46;;;;;;;;;;;26.60;62.50;;;;;;5051786;28;20486;-70
2022/06/30 23:36:11;;;;;;;;;;;26.60;62.40;;;;;;5051930;28;20291;-73
2022/06/30 23:38:37;;;;;;;;;;;26.50;61.90;;;;;;5051878;28;20280;-73
2022/06/30 23:41:03;;;;;;;;;;;26.60;62.00;;;;;;5054884;28;20388;-72
2022/06/30 23:43:29;;;;;;;;;;;26.70;61.80;;;;;;5056058;28;19997;-72
2022/06/30 23:45:54;;;;;;;;;;;26.80;61.30;;;;;;5055884;28;20055;-71
2022/06/30 23:48:20;;;;;;;;;;;26.90;60.90;;;;;;5056001;28;20003;-71
2022/06/30 23:50:45;;;;;;;;;;;26.90;60.90;;;;;;5055700;28;20481;-72
2022/06/30 23:53:11;;;;;;;;;;;26.70;61.60;;;;;;5055877;28;19915;-72
2022/06/30 23:55:36;;;;;;;;;;;26.60;62.40;;;;;;5055859;28;20003;-72
2022/06/30 23:58:02;;;;;;;;;;;26.50;62.20;;;;;;5055728;28;19922;-72
